createdAt,value
2022-10-23T00:00:13.289Z,4.79
2022-10-23T00:02:43.905Z,4.51
2022-10-23T00:05:14.681Z,4.69
2022-10-23T00:07:42.336Z,4.34
2022-10-23T00:10:12.430Z,4.41
2022-10-23T00:12:42.266Z,4.50
2022-10-23T00:15:12.493Z,4.18
2022-10-23T00:17:42.775Z,3.91
2022-10-23T00:20:13.028Z,3.67
2022-10-23T00:22:40.993Z,3.55
2022-10-23T00:25:11.907Z,3.37
2022-10-23T00:27:41.970Z,3.20
2022-10-23T00:30:14.829Z,3.23
2022-10-23T00:32:44.483Z,2.97
2022-10-23T00:35:12.837Z,2.97
2022-10-23T00:37:43.235Z,2.96
2022-10-23T00:40:12.347Z,3.20
2022-10-23T00:42:40.202Z,3.09
2022-10-23T00:45:21.772Z,3.36
2022-10-23T00:47:50.100Z,3.58
2022-10-23T00:50:21.826Z,3.69
2022-10-23T00:52:53.621Z,3.84
2022-10-23T00:55:26.375Z,3.81
2022-10-23T00:57:54.529Z,3.86
2022-10-23T01:00:31.029Z,4.05
2022-10-23T01:02:59.329Z,4.03
2022-10-23T01:05:36.944Z,3.74
2022-10-23T01:08:11.639Z,3.54
2022-10-23T01:10:48.096Z,3.61
2022-10-23T01:13:22.722Z,3.58
2022-10-23T01:16:02.699Z,3.51
2022-10-23T01:18:39.296Z,3.63
2022-10-23T01:21:14.579Z,3.86
2022-10-23T01:24:06.021Z,3.64
2022-10-23T01:26:58.415Z,3.79
2022-10-23T01:29:36.026Z,3.67
2022-10-23T01:32:13.350Z,3.75
2022-10-23T01:34:48.009Z,3.88
2022-10-23T01:37:26.356Z,3.61
2022-10-23T01:40:00.862Z,3.44
2022-10-23T01:42:38.498Z,3.65
2022-10-23T01:45:14.725Z,3.81
2022-10-23T01:47:48.095Z,3.50
2022-10-23T01:50:18.354Z,3.58
2022-10-23T01:52:50.772Z,3.58
2022-10-23T01:55:18.782Z,3.63
2022-10-23T01:57:48.516Z,3.46
2022-10-23T02:00:23.486Z,3.44
2022-10-23T02:02:52.922Z,3.51
2022-10-23T02:05:27.803Z,3.57
2022-10-23T02:07:55.933Z,3.22
2022-10-23T02:10:34.131Z,3.16
2022-10-23T02:13:07.265Z,3.04
2022-10-23T02:15:44.484Z,3.00
2022-10-23T02:18:21.872Z,2.86
2022-10-23T02:20:58.732Z,2.99
2022-10-23T02:23:33.124Z,3.20
2022-10-23T02:26:10.316Z,3.10
2022-10-23T02:28:42.700Z,3.05
2022-10-23T02:31:19.760Z,2.67
2022-10-23T02:33:50.107Z,2.76
2022-10-23T02:36:19.884Z,2.32
2022-10-23T02:38:50.007Z,2.75
2022-10-23T02:41:26.737Z,2.73
2022-10-23T02:44:13.834Z,2.90
2022-10-23T02:46:52.888Z,2.41
2022-10-23T02:49:29.495Z,2.69
2022-10-23T02:52:07.293Z,2.35
2022-10-23T02:54:57.434Z,2.47
2022-10-23T02:57:31.961Z,2.63
2022-10-23T03:00:07.647Z,2.45
2022-10-23T03:02:56.019Z,2.38
2022-10-23T03:05:27.905Z,2.45
2022-10-23T03:07:56.144Z,2.60
2022-10-23T03:10:26.264Z,2.46
2022-10-23T03:12:56.189Z,2.39
2022-10-23T03:15:24.108Z,2.09
2022-10-23T03:17:54.594Z,2.25
2022-10-23T03:20:24.219Z,2.25
2022-10-23T03:22:51.990Z,2.30
2022-10-23T03:25:22.159Z,2.39
2022-10-23T03:27:51.889Z,2.05
2022-10-23T03:30:20.304Z,2.50
2022-10-23T03:32:50.383Z,2.15
2022-10-23T03:35:21.823Z,2.79
2022-10-23T03:37:49.599Z,2.47
2022-10-23T03:40:19.621Z,2.67
2022-10-23T03:42:53.713Z,2.63
2022-10-23T03:45:23.785Z,2.62
2022-10-23T03:47:51.848Z,2.60
2022-10-23T03:50:23.267Z,2.72
2022-10-23T03:52:53.230Z,2.62
2022-10-23T03:55:21.006Z,2.71
2022-10-23T03:57:50.674Z,2.75
2022-10-23T04:00:21.153Z,2.63
2022-10-23T04:02:48.864Z,2.56
2022-10-23T04:05:19.021Z,2.50
2022-10-23T04:07:50.232Z,2.50
2022-10-23T04:10:18.163Z,2.52
2022-10-23T04:12:47.856Z,2.18
2022-10-23T04:15:18.103Z,2.43
2022-10-23T04:17:45.808Z,2.30
2022-10-23T04:20:13.689Z,2.42
2022-10-23T04:22:44.057Z,2.36
2022-10-23T04:25:13.617Z,2.46
2022-10-23T04:27:43.564Z,2.50
2022-10-23T04:30:13.141Z,2.20
2022-10-23T04:32:41.008Z,2.07
2022-10-23T04:35:11.432Z,2.44
2022-10-23T04:37:41.730Z,2.30
2022-10-23T04:40:10.234Z,2.23
2022-10-23T04:42:42.320Z,2.32
2022-10-23T04:45:12.861Z,2.19
2022-10-23T04:47:40.648Z,2.44
2022-10-23T04:50:10.920Z,2.30
2022-10-23T04:52:41.242Z,2.26
2022-10-23T04:55:09.694Z,2.21
2022-10-23T04:57:41.098Z,2.22
2022-10-23T05:00:14.255Z,1.99
2022-10-23T05:02:44.162Z,2.24
2022-10-23T05:05:14.359Z,2.09
2022-10-23T05:07:42.447Z,2.41
2022-10-23T05:10:11.143Z,2.25
2022-10-23T05:12:41.825Z,2.41
2022-10-23T05:15:10.284Z,2.28
2022-10-23T05:17:44.086Z,2.48
2022-10-23T05:20:19.397Z,2.13
2022-10-23T05:22:53.018Z,1.95
2022-10-23T05:25:20.954Z,2.23
2022-10-23T05:27:50.138Z,1.94
2022-10-23T05:30:19.940Z,2.12
2022-10-23T05:32:50.083Z,2.05
2022-10-23T05:35:24.138Z,1.93
2022-10-23T05:37:55.688Z,2.04
2022-10-23T05:40:23.974Z,2.07
2022-10-23T05:42:55.231Z,2.06
2022-10-23T05:45:23.154Z,2.09
2022-10-23T05:47:50.971Z,2.01
2022-10-23T05:50:21.012Z,1.99
2022-10-23T05:52:50.987Z,1.81
2022-10-23T05:55:18.885Z,1.71
2022-10-23T05:57:49.011Z,1.65
2022-10-23T06:00:26.377Z,1.90
2022-10-23T06:02:56.192Z,1.85
2022-10-23T06:05:23.979Z,1.75
2022-10-23T06:07:54.056Z,1.76
2022-10-23T06:10:26.130Z,1.59
2022-10-23T06:12:53.928Z,1.98
2022-10-23T06:15:21.802Z,1.85
2022-10-23T06:17:54.724Z,2.11
2022-10-23T06:20:26.540Z,2.11
2022-10-23T06:23:00.641Z,2.19
2022-10-23T06:25:30.736Z,2.07
2022-10-23T06:27:58.662Z,2.12
2022-10-23T06:30:28.568Z,1.92
2022-10-23T06:33:03.207Z,1.98
2022-10-23T06:35:35.810Z,2.15
2022-10-23T06:38:05.936Z,2.16
2022-10-23T06:40:36.310Z,2.08
2022-10-23T06:43:06.123Z,1.64
2022-10-23T06:45:35.062Z,1.99
2022-10-23T06:48:04.526Z,1.90
2022-10-23T06:50:34.143Z,2.04
2022-10-23T06:53:02.246Z,2.08
2022-10-23T06:55:32.384Z,1.97
2022-10-23T06:58:00.613Z,1.92
2022-10-23T07:00:28.561Z,1.79
2022-10-23T07:02:58.809Z,1.72
2022-10-23T07:05:29.878Z,1.84
2022-10-23T07:07:57.676Z,1.97
2022-10-23T07:10:28.090Z,1.97
2022-10-23T07:13:02.548Z,2.09
2022-10-23T07:15:31.138Z,1.76
2022-10-23T07:17:58.879Z,2.18
2022-10-23T07:20:30.730Z,1.97
2022-10-23T07:23:00.686Z,1.88
2022-10-23T07:25:28.760Z,1.95
2022-10-23T07:27:58.611Z,2.01
2022-10-23T07:30:26.548Z,1.82
2022-10-23T07:32:54.333Z,1.99
2022-10-23T07:35:24.041Z,2.52
2022-10-23T07:37:55.129Z,2.69
2022-10-23T07:40:23.106Z,2.72
2022-10-23T07:42:52.835Z,2.45
2022-10-23T07:45:20.689Z,2.63
2022-10-23T07:47:52.093Z,2.58
2022-10-23T07:50:20.260Z,2.74
2022-10-23T07:52:50.371Z,2.76
2022-10-23T07:55:19.904Z,2.74
2022-10-23T07:57:52.043Z,2.73
2022-10-23T08:00:20.151Z,2.99
2022-10-23T08:02:48.033Z,3.05
2022-10-23T08:05:16.217Z,3.00
2022-10-23T08:07:44.028Z,2.67
2022-10-23T08:10:11.775Z,2.98
2022-10-23T08:12:44.996Z,2.95
2022-10-23T08:15:13.008Z,2.92
2022-10-23T08:17:41.174Z,3.15
2022-10-23T08:20:15.577Z,3.28
2022-10-23T08:22:43.462Z,3.03
2022-10-23T08:25:11.501Z,3.36
2022-10-23T08:27:45.368Z,3.34
2022-10-23T08:30:13.787Z,3.25
2022-10-23T08:32:41.570Z,3.09
2022-10-23T08:35:10.241Z,3.41
2022-10-23T08:37:38.052Z,3.43
2022-10-23T08:40:06.642Z,3.55
2022-10-23T08:42:41.935Z,3.51
2022-10-23T08:45:28.662Z,3.50
2022-10-23T08:48:07.172Z,3.44
2022-10-23T08:50:41.392Z,3.55
2022-10-23T08:53:19.066Z,3.56
2022-10-23T08:55:50.665Z,3.29
2022-10-23T08:58:31.311Z,3.04
2022-10-23T09:01:00.549Z,3.42
2022-10-23T09:03:30.685Z,3.68
2022-10-23T09:06:12.508Z,3.70
2022-10-23T09:08:53.710Z,3.60
2022-10-23T09:11:30.807Z,3.56
2022-10-23T09:14:37.090Z,3.36
2022-10-23T09:17:19.075Z,3.29
2022-10-23T09:19:55.091Z,3.76
2022-10-23T09:22:24.945Z,4.00
2022-10-23T09:24:53.955Z,3.80
2022-10-23T09:27:22.333Z,3.24
2022-10-23T09:29:52.091Z,3.47
2022-10-23T09:32:23.052Z,3.53
2022-10-23T09:34:53.525Z,3.51
2022-10-23T09:37:27.871Z,3.70
2022-10-23T09:40:19.644Z,3.93
2022-10-23T09:42:59.107Z,3.50
2022-10-23T09:45:34.160Z,3.84
2022-10-23T09:48:13.155Z,3.64
2022-10-23T09:50:51.073Z,3.49
2022-10-23T09:53:24.340Z,3.33
2022-10-23T09:55:59.830Z,3.39
2022-10-23T09:58:34.660Z,3.46
2022-10-23T10:01:03.600Z,3.78
2022-10-23T10:03:33.017Z,4.08
2022-10-23T10:06:02.731Z,3.97
2022-10-23T10:08:47.336Z,4.06
2022-10-23T10:11:21.138Z,4.14
2022-10-23T10:14:15.596Z,4.09
2022-10-23T10:16:48.681Z,4.34
2022-10-23T10:19:35.950Z,4.03
2022-10-23T10:22:11.394Z,4.17
2022-10-23T10:24:50.090Z,4.05
2022-10-23T10:27:29.762Z,3.93
2022-10-23T10:30:11.493Z,4.14
2022-10-23T10:32:46.542Z,4.37
2022-10-23T10:35:45.320Z,4.10
2022-10-23T10:38:31.125Z,4.63
2022-10-23T10:41:22.590Z,4.59
2022-10-23T10:44:05.915Z,4.61
2022-10-23T10:46:41.152Z,4.54
2022-10-23T10:49:16.772Z,4.71
2022-10-23T10:51:52.782Z,4.82
2022-10-23T10:54:36.616Z,4.65
2022-10-23T10:57:13.580Z,4.51
2022-10-23T10:59:46.327Z,4.54
2022-10-23T11:02:28.848Z,4.98
2022-10-23T11:05:10.730Z,5.34
2022-10-23T11:07:44.486Z,5.20
2022-10-23T11:10:18.263Z,5.21
2022-10-23T11:12:49.738Z,5.35
2022-10-23T11:15:22.195Z,5.43
2022-10-23T11:17:56.329Z,5.46
2022-10-23T11:20:40.438Z,5.50
2022-10-23T11:23:37.654Z,5.68
2022-10-23T11:26:19.689Z,5.54
2022-10-23T11:29:05.966Z,5.73
2022-10-23T11:31:43.852Z,5.58
2022-10-23T11:34:49.764Z,5.89
2022-10-23T11:37:21.655Z,5.89
2022-10-23T11:40:04.874Z,6.07
2022-10-23T11:42:47.000Z,6.04
2022-10-23T11:45:48.756Z,6.35
2022-10-23T11:48:24.077Z,6.53
2022-10-23T11:50:55.091Z,6.65
2022-10-23T11:53:40.165Z,6.61
2022-10-23T11:59:22.547Z,6.43
2022-10-23T12:01:55.061Z,6.71
2022-10-23T12:04:29.378Z,6.88
2022-10-23T12:07:02.168Z,6.85
2022-10-23T12:09:39.169Z,7.05
2022-10-23T12:12:18.590Z,7.12
2022-10-23T12:14:51.842Z,7.06
2022-10-23T12:17:35.817Z,7.05
2022-10-23T12:20:20.564Z,6.73
2022-10-23T12:23:06.170Z,7.25
2022-10-23T12:25:45.380Z,7.01
2022-10-23T12:28:30.320Z,6.97
2022-10-23T12:31:14.222Z,6.99
2022-10-23T12:33:49.022Z,7.43
2022-10-23T12:36:54.229Z,7.26
2022-10-23T12:39:31.033Z,7.40
2022-10-23T12:42:00.179Z,7.37
2022-10-23T12:44:30.470Z,7.34
2022-10-23T12:47:05.607Z,7.32
2022-10-23T12:49:35.459Z,7.37
2022-10-23T12:52:08.745Z,7.21
2022-10-23T12:54:40.702Z,7.36
2022-10-23T12:57:23.576Z,7.25
2022-10-23T12:59:54.490Z,7.31
2022-10-23T13:02:30.138Z,7.46
2022-10-23T13:05:01.163Z,7.56
2022-10-23T13:07:30.994Z,7.47
2022-10-23T13:10:00.105Z,7.53
2022-10-23T13:12:31.361Z,7.45
2022-10-23T13:15:03.496Z,7.24
2022-10-23T13:17:38.035Z,7.40
2022-10-23T13:20:28.358Z,7.24
2022-10-23T13:23:01.643Z,7.28
2022-10-23T13:25:34.612Z,7.38
2022-10-23T13:28:24.727Z,7.41
2022-10-23T13:31:07.751Z,7.06
2022-10-23T13:33:39.555Z,7.21
2022-10-23T13:36:22.264Z,6.84
2022-10-23T13:39:01.660Z,7.03
2022-10-23T13:41:33.704Z,6.76
2022-10-23T13:44:01.578Z,6.89
2022-10-23T13:46:29.425Z,6.86
2022-10-23T13:49:00.761Z,6.94
2022-10-23T13:51:31.421Z,7.13
2022-10-23T13:53:59.553Z,7.22
2022-10-23T13:56:31.766Z,7.09
2022-10-23T13:58:59.584Z,6.90
2022-10-23T14:01:30.818Z,6.79
2022-10-23T14:04:04.404Z,6.95
2022-10-23T14:06:33.070Z,6.68
2022-10-23T14:09:01.148Z,6.78
2022-10-23T14:11:34.302Z,6.80
2022-10-23T14:14:02.063Z,6.46
2022-10-23T14:16:30.007Z,6.96
2022-10-23T14:19:01.552Z,6.79
2022-10-23T14:21:29.449Z,6.72
2022-10-23T14:23:57.225Z,6.72
2022-10-23T14:26:30.374Z,6.68
2022-10-23T14:29:02.340Z,6.48
2022-10-23T14:31:38.792Z,6.30
2022-10-23T14:34:10.023Z,6.26
2022-10-23T14:36:49.468Z,6.28
2022-10-23T14:39:21.972Z,6.35
2022-10-23T14:41:49.737Z,5.98
2022-10-23T14:44:17.563Z,5.97
2022-10-23T14:46:49.476Z,6.05
2022-10-23T14:49:18.760Z,6.00
2022-10-23T14:51:46.571Z,5.94
2022-10-23T14:54:17.695Z,6.03
2022-10-23T14:56:45.530Z,5.83
2022-10-23T14:59:15.144Z,5.90
2022-10-23T15:01:48.962Z,5.98
2022-10-23T15:04:21.827Z,5.81
2022-10-23T15:06:51.745Z,5.79
2022-10-23T15:09:20.358Z,5.66
2022-10-23T15:12:01.483Z,5.64
2022-10-23T15:14:29.438Z,5.24
2022-10-23T15:16:57.272Z,5.65
2022-10-23T15:19:27.107Z,5.71
2022-10-23T15:21:54.876Z,5.42
2022-10-23T15:24:23.080Z,5.18
2022-10-23T15:26:52.070Z,5.14
2022-10-23T15:29:20.306Z,5.13
2022-10-23T15:31:56.348Z,5.09
2022-10-23T15:34:29.753Z,4.95
2022-10-23T15:36:58.628Z,5.18
2022-10-23T15:39:28.701Z,4.93
2022-10-23T15:41:57.727Z,5.10
2022-10-23T15:44:27.678Z,5.08
2022-10-23T15:46:56.985Z,5.02
2022-10-23T15:49:32.406Z,5.00
2022-10-23T15:52:00.540Z,5.07
2022-10-23T15:54:31.910Z,5.02
2022-10-23T15:57:01.655Z,5.01
2022-10-23T15:59:31.402Z,4.94
2022-10-23T16:01:59.710Z,4.94
2022-10-23T16:04:35.200Z,4.90
2022-10-23T16:07:02.956Z,4.59
2022-10-23T16:09:30.812Z,4.82
2022-10-23T16:12:02.708Z,4.78
2022-10-23T16:14:30.521Z,4.77
2022-10-23T16:16:58.312Z,4.87
2022-10-23T16:19:31.740Z,4.98
2022-10-23T16:21:59.550Z,5.09
2022-10-23T16:24:27.390Z,5.02
2022-10-23T16:26:59.573Z,4.96
2022-10-23T16:29:29.552Z,4.87
2022-10-23T16:31:59.828Z,4.64
2022-10-23T16:34:30.898Z,4.90
2022-10-23T16:36:58.744Z,4.60
2022-10-23T16:39:30.435Z,4.95
2022-10-23T16:41:58.774Z,4.98
2022-10-23T16:44:26.762Z,4.87
2022-10-23T16:46:54.644Z,4.87
2022-10-23T16:49:22.644Z,4.91
2022-10-23T16:51:51.840Z,4.81
2022-10-23T16:54:21.606Z,4.91
2022-10-23T16:56:49.643Z,4.84
2022-10-23T16:59:17.559Z,4.40
2022-10-23T17:01:45.657Z,4.83
2022-10-23T17:04:15.446Z,4.74
2022-10-23T17:06:43.275Z,4.72
2022-10-23T17:09:12.547Z,4.84
2022-10-23T17:11:41.924Z,4.74
2022-10-23T17:14:14.452Z,4.78
2022-10-23T17:16:46.908Z,4.76
2022-10-23T17:19:40.164Z,4.41
2022-10-23T17:22:10.681Z,4.75
2022-10-23T17:24:50.135Z,4.77
2022-10-23T17:27:21.853Z,4.70
2022-10-23T17:29:49.836Z,4.87
2022-10-23T17:32:17.737Z,4.83
2022-10-23T17:34:46.674Z,4.76
2022-10-23T17:37:14.757Z,4.82
2022-10-23T17:39:44.287Z,4.89
2022-10-23T17:42:22.499Z,4.93
2022-10-23T17:44:52.666Z,4.87
2022-10-23T17:47:20.741Z,4.62
2022-10-23T17:49:48.855Z,4.89
2022-10-23T17:52:20.904Z,4.79
2022-10-23T17:54:53.475Z,4.74
2022-10-23T17:59:52.553Z,4.47
2022-10-23T18:02:20.993Z,4.58
2022-10-23T18:04:49.210Z,4.85
2022-10-23T18:07:17.181Z,4.88
2022-10-23T18:09:48.119Z,4.74
2022-10-23T18:12:19.427Z,4.92
2022-10-23T18:14:51.876Z,4.83
2022-10-23T18:17:24.902Z,4.87
2022-10-23T18:20:01.663Z,5.00
2022-10-23T18:22:33.438Z,4.96
2022-10-23T18:25:03.332Z,4.85
2022-10-23T18:27:41.692Z,5.38
2022-10-23T18:30:13.457Z,5.11
2022-10-23T18:32:42.001Z,4.90
2022-10-23T18:35:13.585Z,4.81
2022-10-23T18:37:43.971Z,4.44
2022-10-23T18:40:21.272Z,4.70
2022-10-23T18:42:58.962Z,4.70
2022-10-23T18:45:30.780Z,4.73
2022-10-23T18:48:03.122Z,4.78
2022-10-23T18:50:38.960Z,5.41
2022-10-23T18:53:10.495Z,5.26
2022-10-23T18:55:47.213Z,4.99
2022-10-23T18:58:19.910Z,5.13
2022-10-23T19:00:49.688Z,5.12
2022-10-23T19:03:21.042Z,4.99
2022-10-23T19:05:54.543Z,4.87
2022-10-23T19:08:33.425Z,4.72
2022-10-23T19:11:05.962Z,4.75
2022-10-23T19:13:39.535Z,4.85
2022-10-23T19:16:25.182Z,4.84
2022-10-23T19:18:57.834Z,4.68
2022-10-23T19:21:32.243Z,4.83
2022-10-23T19:24:07.432Z,4.59
2022-10-23T19:26:44.692Z,4.65
2022-10-23T19:29:18.834Z,4.65
2022-10-23T19:31:54.543Z,4.72
2022-10-23T19:34:25.307Z,4.75
2022-10-23T19:36:55.384Z,4.43
2022-10-23T19:39:27.253Z,4.63
2022-10-23T19:41:58.294Z,4.82
2022-10-23T19:44:31.858Z,4.79
2022-10-23T19:47:02.246Z,4.70
2022-10-23T19:49:33.574Z,4.72
2022-10-23T19:52:02.763Z,4.80
2022-10-23T19:54:34.067Z,4.75
2022-10-23T19:57:04.359Z,4.59
2022-10-23T19:59:36.231Z,4.69
2022-10-23T20:02:05.207Z,4.87
2022-10-23T20:04:35.718Z,4.86
2022-10-23T20:07:05.923Z,4.97
2022-10-23T20:09:36.671Z,4.93
2022-10-23T20:12:05.147Z,4.88
2022-10-23T20:14:43.196Z,4.91
2022-10-23T20:17:11.103Z,4.86
2022-10-23T20:19:41.272Z,4.92
2022-10-23T20:22:11.455Z,4.78
2022-10-23T20:24:42.332Z,4.95
2022-10-23T20:27:13.892Z,4.58
2022-10-23T20:29:43.944Z,4.74
2022-10-23T20:32:15.605Z,4.83
2022-10-23T20:34:43.944Z,4.80
2022-10-23T20:37:11.960Z,4.71
2022-10-23T20:39:42.010Z,4.69
2022-10-23T20:42:09.944Z,4.45
2022-10-23T20:44:37.999Z,4.90
2022-10-23T20:47:11.199Z,4.74
2022-10-23T20:49:39.053Z,4.80
2022-10-23T20:52:06.887Z,4.79
2022-10-23T20:54:40.139Z,4.82
2022-10-23T20:57:07.974Z,4.82
2022-10-23T20:59:35.877Z,4.69
2022-10-23T21:02:04.033Z,4.98
2022-10-23T21:04:33.392Z,5.29
2022-10-23T21:07:16.446Z,5.18
2022-10-23T21:09:44.620Z,5.18
2022-10-23T21:12:12.429Z,5.13
2022-10-23T21:14:40.272Z,4.85
2022-10-23T21:17:10.828Z,5.29
2022-10-23T21:19:40.204Z,5.39
2022-10-23T21:22:08.052Z,5.12
2022-10-23T21:24:38.045Z,5.10
2022-10-23T21:27:05.859Z,4.88
2022-10-23T21:29:33.654Z,4.84
2022-10-23T21:32:05.904Z,4.68
2022-10-23T21:34:33.695Z,4.85
2022-10-23T21:37:13.409Z,4.69
2022-10-23T21:39:42.265Z,4.38
2022-10-23T21:42:10.491Z,4.83
2022-10-23T21:44:38.609Z,4.65
2022-10-23T21:47:08.934Z,4.57
2022-10-23T21:49:36.953Z,4.39
2022-10-23T21:52:06.299Z,4.73
2022-10-23T21:54:34.313Z,4.62
2022-10-23T21:57:03.177Z,4.76
2022-10-23T21:59:33.195Z,4.61
2022-10-23T22:02:07.537Z,4.75
2022-10-23T22:04:35.357Z,4.74
2022-10-23T22:07:03.739Z,4.82
2022-10-23T22:09:36.823Z,4.72
2022-10-23T22:12:04.864Z,4.74
2022-10-23T22:14:36.704Z,5.17
2022-10-23T22:17:04.979Z,5.18
2022-10-23T22:19:33.374Z,5.01
2022-10-23T22:22:01.361Z,5.15
2022-10-23T22:24:31.181Z,5.19
2022-10-23T22:27:00.324Z,5.16
2022-10-23T22:29:30.242Z,5.16
2022-10-23T22:32:01.980Z,5.04
2022-10-23T22:37:23.412Z,5.20
2022-10-23T22:39:53.922Z,5.04
2022-10-23T22:42:22.859Z,5.07
2022-10-23T22:44:52.467Z,5.01
2022-10-23T22:47:22.511Z,5.21
2022-10-23T22:49:50.229Z,5.24
2022-10-23T22:52:19.857Z,4.90
2022-10-23T22:54:51.712Z,5.00
2022-10-23T22:57:19.586Z,4.70
2022-10-23T22:59:48.785Z,5.13
2022-10-23T23:02:16.717Z,5.02
2022-10-23T23:04:44.513Z,4.69
2022-10-23T23:07:13.613Z,4.85
2022-10-23T23:09:46.715Z,5.15
2022-10-23T23:12:15.822Z,5.14
2022-10-23T23:14:45.715Z,5.09
2022-10-23T23:17:16.712Z,5.26
2022-10-23T23:19:44.519Z,5.31
2022-10-23T23:22:14.496Z,5.18
2022-10-23T23:24:44.245Z,5.35
2022-10-23T23:27:12.190Z,5.32
2022-10-23T23:29:42.199Z,5.22
2022-10-23T23:32:13.555Z,5.33
2022-10-23T23:34:42.847Z,5.38
2022-10-23T23:37:10.665Z,5.29
2022-10-23T23:39:41.013Z,4.90
2022-10-23T23:42:11.045Z,5.01
2022-10-23T23:44:45.864Z,5.00
2022-10-23T23:47:27.901Z,5.16
2022-10-23T23:49:57.148Z,5.43
2022-10-23T23:52:24.954Z,5.33
2022-10-23T23:54:57.391Z,5.34
2022-10-23T23:57:25.211Z,4.97
2022-10-23T23:59:53.128Z,5.03
